sensor_id;sensor_type;location;lat;lon;timestamp;temperature;humidity
36990;DHT22;22898;52.102;5.776;2024-02-26T00:01:25;10.90;99.90
36990;DHT22;22898;52.102;5.776;2024-02-26T00:03:51;10.90;99.90
36990;DHT22;22898;52.102;5.776;2024-02-26T00:06:17;11.00;99.90
36990;DHT22;22898;52.102;5.776;2024-02-26T00:08:44;10.80;99.90
36990;DHT22;22898;52.102;5.776;2024-02-26T00:11:09;10.70;99.90
36990;DHT22;22898;52.102;5.776;2024-02-26T00:13:36;10.80;99.90
36990;DHT22;22898;52.102;5.776;2024-02-26T00:16:02;11.00;99.90
36990;DHT22;22898;52.102;5.776;2024-02-26T00:18:27;11.20;99.90
36990;DHT22;22898;52.102;5.776;2024-02-26T00:20:53;11.20;99.90
36990;DHT22;22898;52.102;5.776;2024-02-26T00:23:19;11.20;99.90
36990;DHT22;22898;52.102;5.776;2024-02-26T00:25:44;11.00;99.90
36990;DHT22;22898;52.102;5.776;2024-02-26T00:28:10;10.90;99.90
36990;DHT22;22898;52.102;5.776;2024-02-26T00:30:36;10.80;99.90
36990;DHT22;22898;52.102;5.776;2024-02-26T00:33:01;10.80;99.90
36990;DHT22;22898;52.102;5.776;2024-02-26T00:35:27;10.80;99.90
36990;DHT22;22898;52.102;5.776;2024-02-26T00:37:53;10.70;99.90
36990;DHT22;22898;52.102;5.776;2024-02-26T00:40:19;10.50;99.90
36990;DHT22;22898;52.102;5.776;2024-02-26T00:42:44;10.60;99.90
36990;DHT22;22898;52.102;5.776;2024-02-26T00:45:14;10.70;99.90
36990;DHT22;22898;52.102;5.776;2024-02-26T00:47:41;10.70;99.90
36990;DHT22;22898;52.102;5.776;2024-02-26T00:50:08;10.60;99.90
36990;DHT22;22898;52.102;5.776;2024-02-26T00:52:34;10.40;99.90
36990;DHT22;22898;52.102;5.776;2024-02-26T00:55:00;10.10;99.90
36990;DHT22;22898;52.102;5.776;2024-02-26T00:57:26;10.30;99.90
36990;DHT22;22898;52.102;5.776;2024-02-26T00:59:51;10.40;99.90
36990;DHT22;22898;52.102;5.776;2024-02-26T01:02:17;10.50;99.90
36990;DHT22;22898;52.102;5.776;2024-02-26T01:04:42;10.50;99.90
36990;DHT22;22898;52.102;5.776;2024-02-26T01:07:09;10.50;99.90
36990;DHT22;22898;52.102;5.776;2024-02-26T01:09:34;10.60;99.90
36990;DHT22;22898;52.102;5.776;2024-02-26T01:12:00;10.30;99.90
36990;DHT22;22898;52.102;5.776;2024-02-26T01:14:25;10.30;99.90
36990;DHT22;22898;52.102;5.776;2024-02-26T01:16:51;10.20;99.90
36990;DHT22;22898;52.102;5.776;2024-02-26T01:19:17;10.20;99.90
36990;DHT22;22898;52.102;5.776;2024-02-26T01:21:42;10.30;99.90
36990;DHT22;22898;52.102;5.776;2024-02-26T01:24:08;10.30;99.90
36990;DHT22;22898;52.102;5.776;2024-02-26T01:26:33;10.30;99.90
36990;DHT22;22898;52.102;5.776;2024-02-26T01:28:59;10.20;99.90
36990;DHT22;22898;52.102;5.776;2024-02-26T01:31:25;10.30;99.90
36990;DHT22;22898;52.102;5.776;2024-02-26T01:33:50;10.20;99.90
36990;DHT22;22898;52.102;5.776;2024-02-26T01:36:16;10.10;99.90
36990;DHT22;22898;52.102;5.776;2024-02-26T01:38:41;10.00;99.90
36990;DHT22;22898;52.102;5.776;2024-02-26T01:41:07;9.90;99.90
36990;DHT22;22898;52.102;5.776;2024-02-26T01:43:33;9.90;99.90
36990;DHT22;22898;52.102;5.776;2024-02-26T01:45:58;9.90;99.90
36990;DHT22;22898;52.102;5.776;2024-02-26T01:48:24;10.00;99.90
36990;DHT22;22898;52.102;5.776;2024-02-26T01:50:51;9.90;99.90
36990;DHT22;22898;52.102;5.776;2024-02-26T01:53:17;9.90;99.90
36990;DHT22;22898;52.102;5.776;2024-02-26T01:55:44;10.00;99.90
36990;DHT22;22898;52.102;5.776;2024-02-26T01:58:10;9.90;99.90
36990;DHT22;22898;52.102;5.776;2024-02-26T02:00:36;10.00;99.90
36990;DHT22;22898;52.102;5.776;2024-02-26T02:03:03;10.10;99.90
36990;DHT22;22898;52.102;5.776;2024-02-26T02:05:29;10.40;99.90
36990;DHT22;22898;52.102;5.776;2024-02-26T02:07:55;10.60;99.90
36990;DHT22;22898;52.102;5.776;2024-02-26T02:10:21;10.70;99.90
36990;DHT22;22898;52.102;5.776;2024-02-26T02:12:51;10.70;99.90
36990;DHT22;22898;52.102;5.776;2024-02-26T02:15:17;10.40;99.90
36990;DHT22;22898;52.102;5.776;2024-02-26T02:17:43;10.40;99.90
36990;DHT22;22898;52.102;5.776;2024-02-26T02:20:10;10.30;99.90
36990;DHT22;22898;52.102;5.776;2024-02-26T02:22:40;10.20;99.90
36990;DHT22;22898;52.102;5.776;2024-02-26T02:25:06;10.10;99.90
36990;DHT22;22898;52.102;5.776;2024-02-26T02:27:32;9.90;99.90
36990;DHT22;22898;52.102;5.776;2024-02-26T02:29:58;9.60;99.90
36990;DHT22;22898;52.102;5.776;2024-02-26T02:32:24;9.50;99.90
36990;DHT22;22898;52.102;5.776;2024-02-26T02:34:50;9.60;99.90
36990;DHT22;22898;52.102;5.776;2024-02-26T02:37:16;9.70;99.90
36990;DHT22;22898;52.102;5.776;2024-02-26T02:39:42;9.90;99.90
36990;DHT22;22898;52.102;5.776;2024-02-26T02:42:08;10.20;99.90
36990;DHT22;22898;52.102;5.776;2024-02-26T02:44:34;10.40;99.90
36990;DHT22;22898;52.102;5.776;2024-02-26T02:47:00;10.60;99.90
36990;DHT22;22898;52.102;5.776;2024-02-26T02:49:25;10.70;99.90
36990;DHT22;22898;52.102;5.776;2024-02-26T02:51:51;10.60;99.90
36990;DHT22;22898;52.102;5.776;2024-02-26T02:54:18;10.40;99.90
36990;DHT22;22898;52.102;5.776;2024-02-26T02:56:44;10.50;99.90
36990;DHT22;22898;52.102;5.776;2024-02-26T02:59:10;10.70;99.90
36990;DHT22;22898;52.102;5.776;2024-02-26T03:01:35;10.70;99.90
36990;DHT22;22898;52.102;5.776;2024-02-26T03:04:01;10.30;99.90
36990;DHT22;22898;52.102;5.776;2024-02-26T03:06:26;10.30;99.90
36990;DHT22;22898;52.102;5.776;2024-02-26T03:08:54;10.40;99.90
36990;DHT22;22898;52.102;5.776;2024-02-26T03:11:20;10.70;99.90
36990;DHT22;22898;52.102;5.776;2024-02-26T03:13:48;10.80;99.90
36990;DHT22;22898;52.102;5.776;2024-02-26T03:16:14;11.00;99.90
36990;DHT22;22898;52.102;5.776;2024-02-26T03:18:40;11.00;99.90
36990;DHT22;22898;52.102;5.776;2024-02-26T03:21:06;10.80;99.90
36990;DHT22;22898;52.102;5.776;2024-02-26T03:23:31;10.40;99.90
36990;DHT22;22898;52.102;5.776;2024-02-26T03:26:04;10.50;99.90
36990;DHT22;22898;52.102;5.776;2024-02-26T03:28:30;10.70;99.90
36990;DHT22;22898;52.102;5.776;2024-02-26T03:30:58;10.80;99.90
36990;DHT22;22898;52.102;5.776;2024-02-26T03:33:24;10.70;99.90
36990;DHT22;22898;52.102;5.776;2024-02-26T03:35:50;10.70;99.90
36990;DHT22;22898;52.102;5.776;2024-02-26T03:38:16;10.20;99.90
36990;DHT22;22898;52.102;5.776;2024-02-26T03:40:41;9.80;99.90
36990;DHT22;22898;52.102;5.776;2024-02-26T03:43:07;9.50;99.90
36990;DHT22;22898;52.102;5.776;2024-02-26T03:45:33;9.60;99.90
36990;DHT22;22898;52.102;5.776;2024-02-26T03:47:58;9.70;99.90
36990;DHT22;22898;52.102;5.776;2024-02-26T03:50:24;10.00;99.90
36990;DHT22;22898;52.102;5.776;2024-02-26T03:52:50;10.30;99.90
36990;DHT22;22898;52.102;5.776;2024-02-26T03:55:15;10.50;99.90
36990;DHT22;22898;52.102;5.776;2024-02-26T03:57:44;10.40;99.90
36990;DHT22;22898;52.102;5.776;2024-02-26T04:00:10;10.30;99.90
36990;DHT22;22898;52.102;5.776;2024-02-26T04:02:36;10.20;99.90
36990;DHT22;22898;52.102;5.776;2024-02-26T04:05:02;9.80;99.90
36990;DHT22;22898;52.102;5.776;2024-02-26T04:07:27;9.90;99.90
36990;DHT22;22898;52.102;5.776;2024-02-26T04:09:53;9.80;99.90
36990;DHT22;22898;52.102;5.776;2024-02-26T04:12:18;9.50;99.90
36990;DHT22;22898;52.102;5.776;2024-02-26T04:14:44;9.30;99.90
36990;DHT22;22898;52.102;5.776;2024-02-26T04:17:10;9.30;99.90
36990;DHT22;22898;52.102;5.776;2024-02-26T04:19:36;9.30;99.90
36990;DHT22;22898;52.102;5.776;2024-02-26T04:22:02;9.40;99.90
36990;DHT22;22898;52.102;5.776;2024-02-26T04:24:27;9.40;99.90
36990;DHT22;22898;52.102;5.776;2024-02-26T04:26:53;9.70;99.90
36990;DHT22;22898;52.102;5.776;2024-02-26T04:29:19;10.00;99.90
36990;DHT22;22898;52.102;5.776;2024-02-26T04:31:44;9.80;99.90
36990;DHT22;22898;52.102;5.776;2024-02-26T04:34:11;9.90;99.90
36990;DHT22;22898;52.102;5.776;2024-02-26T04:36:37;9.50;99.90
36990;DHT22;22898;52.102;5.776;2024-02-26T04:39:02;9.50;99.90
36990;DHT22;22898;52.102;5.776;2024-02-26T04:41:28;9.70;99.90
36990;DHT22;22898;52.102;5.776;2024-02-26T04:43:53;10.00;99.90
36990;DHT22;22898;52.102;5.776;2024-02-26T04:46:19;10.00;99.90
36990;DHT22;22898;52.102;5.776;2024-02-26T04:48:47;10.00;99.90
36990;DHT22;22898;52.102;5.776;2024-02-26T04:51:13;10.00;99.90
36990;DHT22;22898;52.102;5.776;2024-02-26T04:53:38;10.20;99.90
36990;DHT22;22898;52.102;5.776;2024-02-26T04:56:04;10.30;99.90
36990;DHT22;22898;52.102;5.776;2024-02-26T04:58:30;9.80;99.90
36990;DHT22;22898;52.102;5.776;2024-02-26T05:00:56;9.80;99.90
36990;DHT22;22898;52.102;5.776;2024-02-26T05:03:21;9.80;99.90
36990;DHT22;22898;52.102;5.776;2024-02-26T05:05:47;9.50;99.90
36990;DHT22;22898;52.102;5.776;2024-02-26T05:08:12;9.60;99.90
36990;DHT22;22898;52.102;5.776;2024-02-26T05:10:38;9.60;99.90
36990;DHT22;22898;52.102;5.776;2024-02-26T05:13:08;9.70;99.90
36990;DHT22;22898;52.102;5.776;2024-02-26T05:15:34;9.80;99.90
36990;DHT22;22898;52.102;5.776;2024-02-26T05:18:00;10.10;99.90
36990;DHT22;22898;52.102;5.776;2024-02-26T05:20:25;10.00;99.90
36990;DHT22;22898;52.102;5.776;2024-02-26T05:22:51;10.20;99.90
36990;DHT22;22898;52.102;5.776;2024-02-26T05:25:17;9.90;99.90
36990;DHT22;22898;52.102;5.776;2024-02-26T05:27:43;9.80;99.90
36990;DHT22;22898;52.102;5.776;2024-02-26T05:30:10;9.70;99.90
36990;DHT22;22898;52.102;5.776;2024-02-26T05:32:35;9.60;99.90
36990;DHT22;22898;52.102;5.776;2024-02-26T05:35:01;9.40;99.90
36990;DHT22;22898;52.102;5.776;2024-02-26T05:37:29;9.60;99.90
36990;DHT22;22898;52.102;5.776;2024-02-26T05:39:55;9.70;99.90
36990;DHT22;22898;52.102;5.776;2024-02-26T05:42:20;9.90;99.90
36990;DHT22;22898;52.102;5.776;2024-02-26T05:44:46;9.80;99.90
36990;DHT22;22898;52.102;5.776;2024-02-26T05:47:12;9.70;99.90
36990;DHT22;22898;52.102;5.776;2024-02-26T05:49:39;9.50;99.90
36990;DHT22;22898;52.102;5.776;2024-02-26T05:52:05;9.80;99.90
36990;DHT22;22898;52.102;5.776;2024-02-26T05:54:31;10.00;99.90
36990;DHT22;22898;52.102;5.776;2024-02-26T05:56:57;10.10;99.90
36990;DHT22;22898;52.102;5.776;2024-02-26T05:59:23;10.30;99.90
36990;DHT22;22898;52.102;5.776;2024-02-26T06:01:49;10.10;99.90
36990;DHT22;22898;52.102;5.776;2024-02-26T06:04:15;9.90;99.90
36990;DHT22;22898;52.102;5.776;2024-02-26T06:06:40;10.00;99.90
36990;DHT22;22898;52.102;5.776;2024-02-26T06:09:06;9.70;99.90
36990;DHT22;22898;52.102;5.776;2024-02-26T06:11:31;9.80;99.90
36990;DHT22;22898;52.102;5.776;2024-02-26T06:13:57;9.70;99.90
36990;DHT22;22898;52.102;5.776;2024-02-26T06:16:23;9.80;99.90
36990;DHT22;22898;52.102;5.776;2024-02-26T06:18:48;9.70;99.90
36990;DHT22;22898;52.102;5.776;2024-02-26T06:21:14;9.60;99.90
36990;DHT22;22898;52.102;5.776;2024-02-26T06:23:39;9.70;99.90
36990;DHT22;22898;52.102;5.776;2024-02-26T06:26:08;9.70;99.90
36990;DHT22;22898;52.102;5.776;2024-02-26T06:28:33;9.60;99.90
36990;DHT22;22898;52.102;5.776;2024-02-26T06:31:01;9.40;99.90
36990;DHT22;22898;52.102;5.776;2024-02-26T06:33:27;9.50;99.90
36990;DHT22;22898;52.102;5.776;2024-02-26T06:35:52;9.40;99.90
36990;DHT22;22898;52.102;5.776;2024-02-26T06:38:18;9.30;99.90
36990;DHT22;22898;52.102;5.776;2024-02-26T06:40:46;9.60;99.90
36990;DHT22;22898;52.102;5.776;2024-02-26T06:43:12;9.80;99.90
36990;DHT22;22898;52.102;5.776;2024-02-26T06:45:37;9.70;99.90
36990;DHT22;22898;52.102;5.776;2024-02-26T06:48:03;9.60;99.90
36990;DHT22;22898;52.102;5.776;2024-02-26T06:50:29;9.40;99.90
36990;DHT22;22898;52.102;5.776;2024-02-26T06:52:54;9.30;99.90
36990;DHT22;22898;52.102;5.776;2024-02-26T06:55:20;9.10;99.90
36990;DHT22;22898;52.102;5.776;2024-02-26T06:57:49;9.00;99.90
36990;DHT22;22898;52.102;5.776;2024-02-26T07:00:15;9.20;99.90
36990;DHT22;22898;52.102;5.776;2024-02-26T07:02:42;9.00;99.90
36990;DHT22;22898;52.102;5.776;2024-02-26T07:05:08;8.60;99.90
36990;DHT22;22898;52.102;5.776;2024-02-26T07:07:34;9.00;99.90
36990;DHT22;22898;52.102;5.776;2024-02-26T07:10:00;9.10;99.90
36990;DHT22;22898;52.102;5.776;2024-02-26T07:12:31;9.10;99.90
36990;DHT22;22898;52.102;5.776;2024-02-26T07:14:57;9.20;99.90
36990;DHT22;22898;52.102;5.776;2024-02-26T07:17:23;9.00;99.90
36990;DHT22;22898;52.102;5.776;2024-02-26T07:19:49;8.90;99.90
36990;DHT22;22898;52.102;5.776;2024-02-26T07:22:14;9.10;99.90
36990;DHT22;22898;52.102;5.776;2024-02-26T07:24:40;9.00;99.90
36990;DHT22;22898;52.102;5.776;2024-02-26T07:27:06;9.30;99.90
36990;DHT22;22898;52.102;5.776;2024-02-26T07:29:31;9.30;99.90
36990;DHT22;22898;52.102;5.776;2024-02-26T07:31:58;8.90;99.90
36990;DHT22;22898;52.102;5.776;2024-02-26T07:34:23;9.00;99.90
36990;DHT22;22898;52.102;5.776;2024-02-26T07:36:53;9.00;99.90
36990;DHT22;22898;52.102;5.776;2024-02-26T07:39:19;8.80;99.90
36990;DHT22;22898;52.102;5.776;2024-02-26T07:41:48;8.80;99.90
36990;DHT22;22898;52.102;5.776;2024-02-26T07:44:15;8.80;99.90
36990;DHT22;22898;52.102;5.776;2024-02-26T07:46:41;8.90;99.90
36990;DHT22;22898;52.102;5.776;2024-02-26T07:49:06;9.10;99.90
36990;DHT22;22898;52.102;5.776;2024-02-26T07:51:33;9.30;99.90
36990;DHT22;22898;52.102;5.776;2024-02-26T07:53:59;9.40;99.90
36990;DHT22;22898;52.102;5.776;2024-02-26T07:56:24;9.40;99.90
36990;DHT22;22898;52.102;5.776;2024-02-26T07:58:50;9.50;99.90
36990;DHT22;22898;52.102;5.776;2024-02-26T08:01:16;9.20;99.90
36990;DHT22;22898;52.102;5.776;2024-02-26T08:03:41;9.00;99.90
36990;DHT22;22898;52.102;5.776;2024-02-26T08:06:08;9.00;99.90
36990;DHT22;22898;52.102;5.776;2024-02-26T08:08:34;9.10;99.90
36990;DHT22;22898;52.102;5.776;2024-02-26T08:11:00;9.10;99.90
36990;DHT22;22898;52.102;5.776;2024-02-26T08:13:25;9.00;99.90
36990;DHT22;22898;52.102;5.776;2024-02-26T08:15:52;8.60;99.90
36990;DHT22;22898;52.102;5.776;2024-02-26T08:18:18;8.50;99.90
36990;DHT22;22898;52.102;5.776;2024-02-26T08:20:44;8.80;99.90
36990;DHT22;22898;52.102;5.776;2024-02-26T08:23:10;8.90;99.90
36990;DHT22;22898;52.102;5.776;2024-02-26T08:25:35;9.00;99.90
36990;DHT22;22898;52.102;5.776;2024-02-26T08:28:01;9.00;99.90
36990;DHT22;22898;52.102;5.776;2024-02-26T08:30:27;9.00;99.90
36990;DHT22;22898;52.102;5.776;2024-02-26T08:32:52;9.10;99.90
36990;DHT22;22898;52.102;5.776;2024-02-26T08:35:19;8.80;99.90
36990;DHT22;22898;52.102;5.776;2024-02-26T08:37:48;8.80;99.90
36990;DHT22;22898;52.102;5.776;2024-02-26T08:40:14;8.80;99.90
36990;DHT22;22898;52.102;5.776;2024-02-26T08:42:40;8.80;99.90
36990;DHT22;22898;52.102;5.776;2024-02-26T08:45:06;8.80;99.90
36990;DHT22;22898;52.102;5.776;2024-02-26T08:47:32;9.00;99.90
36990;DHT22;22898;52.102;5.776;2024-02-26T08:49:58;8.90;99.90
36990;DHT22;22898;52.102;5.776;2024-02-26T08:52:23;9.00;99.90
36990;DHT22;22898;52.102;5.776;2024-02-26T08:54:49;9.10;99.90
36990;DHT22;22898;52.102;5.776;2024-02-26T08:57:15;9.00;99.90
36990;DHT22;22898;52.102;5.776;2024-02-26T08:59:41;9.00;99.90
36990;DHT22;22898;52.102;5.776;2024-02-26T09:02:07;9.00;99.90
36990;DHT22;22898;52.102;5.776;2024-02-26T09:04:34;9.40;99.90
36990;DHT22;22898;52.102;5.776;2024-02-26T09:07:01;9.20;99.90
36990;DHT22;22898;52.102;5.776;2024-02-26T09:09:27;9.20;99.90
36990;DHT22;22898;52.102;5.776;2024-02-26T09:11:53;9.00;99.90
36990;DHT22;22898;52.102;5.776;2024-02-26T09:14:20;9.30;99.90
36990;DHT22;22898;52.102;5.776;2024-02-26T09:16:49;9.30;99.90
36990;DHT22;22898;52.102;5.776;2024-02-26T09:19:14;9.10;99.90
36990;DHT22;22898;52.102;5.776;2024-02-26T09:21:44;9.00;99.90
36990;DHT22;22898;52.102;5.776;2024-02-26T09:24:13;9.20;99.90
36990;DHT22;22898;52.102;5.776;2024-02-26T09:26:39;9.50;99.90
36990;DHT22;22898;52.102;5.776;2024-02-26T09:29:04;9.10;99.90
36990;DHT22;22898;52.102;5.776;2024-02-26T09:31:31;8.90;99.90
36990;DHT22;22898;52.102;5.776;2024-02-26T09:33:56;8.70;99.90
36990;DHT22;22898;52.102;5.776;2024-02-26T09:36:22;8.60;99.90
36990;DHT22;22898;52.102;5.776;2024-02-26T09:38:48;8.50;99.90
36990;DHT22;22898;52.102;5.776;2024-02-26T09:41:17;8.60;99.90
36990;DHT22;22898;52.102;5.776;2024-02-26T09:43:44;8.60;99.90
36990;DHT22;22898;52.102;5.776;2024-02-26T09:46:13;8.80;99.90
36990;DHT22;22898;52.102;5.776;2024-02-26T09:48:42;9.20;99.90
36990;DHT22;22898;52.102;5.776;2024-02-26T09:51:10;9.20;99.90
36990;DHT22;22898;52.102;5.776;2024-02-26T09:53:38;9.60;99.90
36990;DHT22;22898;52.102;5.776;2024-02-26T09:56:08;9.60;99.90
36990;DHT22;22898;52.102;5.776;2024-02-26T09:58:34;9.50;99.90
36990;DHT22;22898;52.102;5.776;2024-02-26T10:01:02;8.90;99.90
36990;DHT22;22898;52.102;5.776;2024-02-26T10:03:34;8.80;99.90
36990;DHT22;22898;52.102;5.776;2024-02-26T10:06:04;9.00;99.90
36990;DHT22;22898;52.102;5.776;2024-02-26T10:08:31;9.20;99.90
36990;DHT22;22898;52.102;5.776;2024-02-26T10:10:57;9.40;99.90
36990;DHT22;22898;52.102;5.776;2024-02-26T10:13:23;9.00;99.90
36990;DHT22;22898;52.102;5.776;2024-02-26T10:15:49;8.90;99.90
36990;DHT22;22898;52.102;5.776;2024-02-26T10:18:15;9.00;99.90
36990;DHT22;22898;52.102;5.776;2024-02-26T10:20:40;9.00;99.90
36990;DHT22;22898;52.102;5.776;2024-02-26T10:23:06;8.90;99.90
36990;DHT22;22898;52.102;5.776;2024-02-26T10:25:32;9.00;99.90
36990;DHT22;22898;52.102;5.776;2024-02-26T10:28:01;9.10;99.90
36990;DHT22;22898;52.102;5.776;2024-02-26T10:30:30;9.50;99.90
36990;DHT22;22898;52.102;5.776;2024-02-26T10:32:56;9.40;99.90
36990;DHT22;22898;52.102;5.776;2024-02-26T10:35:22;9.20;99.90
36990;DHT22;22898;52.102;5.776;2024-02-26T10:37:49;9.10;99.90
36990;DHT22;22898;52.102;5.776;2024-02-26T10:40:15;9.00;99.90
36990;DHT22;22898;52.102;5.776;2024-02-26T10:42:42;9.10;99.90
36990;DHT22;22898;52.102;5.776;2024-02-26T10:45:09;9.10;99.90
36990;DHT22;22898;52.102;5.776;2024-02-26T10:47:36;9.20;99.90
36990;DHT22;22898;52.102;5.776;2024-02-26T10:50:03;9.40;99.90
36990;DHT22;22898;52.102;5.776;2024-02-26T10:52:35;9.40;99.90
36990;DHT22;22898;52.102;5.776;2024-02-26T10:55:05;9.00;99.90
36990;DHT22;22898;52.102;5.776;2024-02-26T10:57:39;8.80;99.90
36990;DHT22;22898;52.102;5.776;2024-02-26T11:00:06;9.00;99.90
36990;DHT22;22898;52.102;5.776;2024-02-26T11:02:33;9.10;99.90
36990;DHT22;22898;52.102;5.776;2024-02-26T11:05:02;9.00;99.90
36990;DHT22;22898;52.102;5.776;2024-02-26T11:07:29;9.40;99.90
36990;DHT22;22898;52.102;5.776;2024-02-26T11:09:56;9.10;99.90
36990;DHT22;22898;52.102;5.776;2024-02-26T11:12:23;9.00;99.90
36990;DHT22;22898;52.102;5.776;2024-02-26T11:14:50;9.10;99.90
36990;DHT22;22898;52.102;5.776;2024-02-26T11:17:22;9.30;99.90
36990;DHT22;22898;52.102;5.776;2024-02-26T11:19:49;9.40;99.90
36990;DHT22;22898;52.102;5.776;2024-02-26T11:22:15;9.20;99.90
36990;DHT22;22898;52.102;5.776;2024-02-26T11:24:41;9.30;99.90
36990;DHT22;22898;52.102;5.776;2024-02-26T11:27:10;9.20;99.90
36990;DHT22;22898;52.102;5.776;2024-02-26T11:29:55;9.30;99.90
36990;DHT22;22898;52.102;5.776;2024-02-26T11:32:23;9.20;99.90
36990;DHT22;22898;52.102;5.776;2024-02-26T11:34:49;9.00;99.90
36990;DHT22;22898;52.102;5.776;2024-02-26T11:37:16;9.20;99.90
36990;DHT22;22898;52.102;5.776;2024-02-26T11:39:42;9.30;99.90
36990;DHT22;22898;52.102;5.776;2024-02-26T11:42:08;9.30;99.90
36990;DHT22;22898;52.102;5.776;2024-02-26T11:44:35;9.50;99.90
36990;DHT22;22898;52.102;5.776;2024-02-26T11:47:28;9.70;99.90
36990;DHT22;22898;52.102;5.776;2024-02-26T11:49:54;9.60;99.90
36990;DHT22;22898;52.102;5.776;2024-02-26T11:52:19;9.30;99.90
36990;DHT22;22898;52.102;5.776;2024-02-26T11:54:53;9.20;99.90
36990;DHT22;22898;52.102;5.776;2024-02-26T11:59:52;9.40;99.90
36990;DHT22;22898;52.102;5.776;2024-02-26T12:02:44;9.80;99.90
36990;DHT22;22898;52.102;5.776;2024-02-26T12:05:31;9.50;99.90
36990;DHT22;22898;52.102;5.776;2024-02-26T12:08:06;9.30;99.90
36990;DHT22;22898;52.102;5.776;2024-02-26T12:10:39;9.70;99.90
36990;DHT22;22898;52.102;5.776;2024-02-26T12:13:17;9.60;99.90
36990;DHT22;22898;52.102;5.776;2024-02-26T12:18:18;9.30;99.90
36990;DHT22;22898;52.102;5.776;2024-02-26T12:20:44;9.00;99.90
36990;DHT22;22898;52.102;5.776;2024-02-26T12:23:14;9.30;99.90
36990;DHT22;22898;52.102;5.776;2024-02-26T12:25:40;9.20;99.90
36990;DHT22;22898;52.102;5.776;2024-02-26T12:28:07;9.10;99.90
36990;DHT22;22898;52.102;5.776;2024-02-26T12:30:33;9.20;99.90
36990;DHT22;22898;52.102;5.776;2024-02-26T12:33:00;9.40;99.90
36990;DHT22;22898;52.102;5.776;2024-02-26T12:35:27;9.30;99.90
36990;DHT22;22898;52.102;5.776;2024-02-26T12:37:54;9.50;99.90
36990;DHT22;22898;52.102;5.776;2024-02-26T12:40:20;9.50;99.90
36990;DHT22;22898;52.102;5.776;2024-02-26T12:42:49;9.50;99.90
36990;DHT22;22898;52.102;5.776;2024-02-26T12:45:15;9.50;99.90
36990;DHT22;22898;52.102;5.776;2024-02-26T12:47:42;9.50;99.90
36990;DHT22;22898;52.102;5.776;2024-02-26T12:50:09;9.50;99.90
36990;DHT22;22898;52.102;5.776;2024-02-26T12:52:40;9.50;99.90
36990;DHT22;22898;52.102;5.776;2024-02-26T12:55:06;9.70;99.90
36990;DHT22;22898;52.102;5.776;2024-02-26T12:57:38;9.70;99.90
36990;DHT22;22898;52.102;5.776;2024-02-26T13:00:06;10.10;99.90
36990;DHT22;22898;52.102;5.776;2024-02-26T13:02:37;10.00;99.90
36990;DHT22;22898;52.102;5.776;2024-02-26T13:05:04;9.70;99.90
36990;DHT22;22898;52.102;5.776;2024-02-26T13:07:31;9.50;99.90
36990;DHT22;22898;52.102;5.776;2024-02-26T13:09:56;9.40;99.90
36990;DHT22;22898;52.102;5.776;2024-02-26T13:12:23;9.60;99.90
36990;DHT22;22898;52.102;5.776;2024-02-26T13:15:02;9.90;99.90
36990;DHT22;22898;52.102;5.776;2024-02-26T13:17:31;10.20;99.90
36990;DHT22;22898;52.102;5.776;2024-02-26T13:19:57;10.50;99.90
36990;DHT22;22898;52.102;5.776;2024-02-26T13:22:22;10.30;99.90
36990;DHT22;22898;52.102;5.776;2024-02-26T13:24:59;10.20;99.90
36990;DHT22;22898;52.102;5.776;2024-02-26T13:27:25;10.20;99.90
36990;DHT22;22898;52.102;5.776;2024-02-26T13:30:10;10.10;99.90
36990;DHT22;22898;52.102;5.776;2024-02-26T13:32:37;10.20;99.90
36990;DHT22;22898;52.102;5.776;2024-02-26T13:35:12;10.20;99.90
36990;DHT22;22898;52.102;5.776;2024-02-26T13:37:38;10.20;99.90
36990;DHT22;22898;52.102;5.776;2024-02-26T13:40:11;10.10;99.90
36990;DHT22;22898;52.102;5.776;2024-02-26T13:42:38;10.00;99.90
36990;DHT22;22898;52.102;5.776;2024-02-26T13:45:04;9.70;99.90
36990;DHT22;22898;52.102;5.776;2024-02-26T13:47:34;9.50;99.90
36990;DHT22;22898;52.102;5.776;2024-02-26T13:50:00;9.70;99.90
36990;DHT22;22898;52.102;5.776;2024-02-26T13:52:26;9.70;99.90
36990;DHT22;22898;52.102;5.776;2024-02-26T13:54:52;9.60;99.90
36990;DHT22;22898;52.102;5.776;2024-02-26T13:57:19;9.90;99.90
36990;DHT22;22898;52.102;5.776;2024-02-26T13:59:44;10.30;99.90
36990;DHT22;22898;52.102;5.776;2024-02-26T14:02:10;10.50;99.90
36990;DHT22;22898;52.102;5.776;2024-02-26T14:04:37;10.40;99.90
36990;DHT22;22898;52.102;5.776;2024-02-26T14:07:02;10.40;99.90
36990;DHT22;22898;52.102;5.776;2024-02-26T14:09:29;10.00;99.90
36990;DHT22;22898;52.102;5.776;2024-02-26T14:11:54;9.80;99.90
36990;DHT22;22898;52.102;5.776;2024-02-26T14:14:20;9.80;99.90
36990;DHT22;22898;52.102;5.776;2024-02-26T14:16:48;9.90;99.90
36990;DHT22;22898;52.102;5.776;2024-02-26T14:19:14;10.20;99.90
36990;DHT22;22898;52.102;5.776;2024-02-26T14:21:39;10.20;99.90
36990;DHT22;22898;52.102;5.776;2024-02-26T14:24:05;10.40;99.90
36990;DHT22;22898;52.102;5.776;2024-02-26T14:26:30;10.20;99.90
36990;DHT22;22898;52.102;5.776;2024-02-26T14:28:56;10.30;99.90
36990;DHT22;22898;52.102;5.776;2024-02-26T14:31:22;10.20;99.90
36990;DHT22;22898;52.102;5.776;2024-02-26T14:33:48;10.20;99.90
36990;DHT22;22898;52.102;5.776;2024-02-26T14:36:14;10.20;99.90
36990;DHT22;22898;52.102;5.776;2024-02-26T14:38:40;10.00;99.90
36990;DHT22;22898;52.102;5.776;2024-02-26T14:41:05;10.00;99.90
36990;DHT22;22898;52.102;5.776;2024-02-26T14:43:31;10.00;99.90
36990;DHT22;22898;52.102;5.776;2024-02-26T14:45:58;10.10;99.90
36990;DHT22;22898;52.102;5.776;2024-02-26T14:48:24;9.90;99.90
36990;DHT22;22898;52.102;5.776;2024-02-26T14:50:50;10.00;99.90
36990;DHT22;22898;52.102;5.776;2024-02-26T14:53:19;9.90;99.90
36990;DHT22;22898;52.102;5.776;2024-02-26T14:55:44;9.90;99.90
36990;DHT22;22898;52.102;5.776;2024-02-26T14:58:10;10.10;99.90
36990;DHT22;22898;52.102;5.776;2024-02-26T15:00:36;10.40;99.90
36990;DHT22;22898;52.102;5.776;2024-02-26T15:03:03;10.50;99.90
36990;DHT22;22898;52.102;5.776;2024-02-26T15:05:29;10.40;99.90
36990;DHT22;22898;52.102;5.776;2024-02-26T15:07:54;10.40;99.90
36990;DHT22;22898;52.102;5.776;2024-02-26T15:10:20;10.10;99.90
36990;DHT22;22898;52.102;5.776;2024-02-26T15:12:48;10.30;99.90
36990;DHT22;22898;52.102;5.776;2024-02-26T15:15:14;10.50;99.90
36990;DHT22;22898;52.102;5.776;2024-02-26T15:17:39;10.20;99.90
36990;DHT22;22898;52.102;5.776;2024-02-26T15:20:06;10.20;99.90
36990;DHT22;22898;52.102;5.776;2024-02-26T15:22:33;10.00;99.90
36990;DHT22;22898;52.102;5.776;2024-02-26T15:24:59;10.40;99.90
36990;DHT22;22898;52.102;5.776;2024-02-26T15:27:24;10.60;99.90
36990;DHT22;22898;52.102;5.776;2024-02-26T15:29:50;10.90;99.90
36990;DHT22;22898;52.102;5.776;2024-02-26T15:32:23;10.70;99.90
36990;DHT22;22898;52.102;5.776;2024-02-26T15:34:50;10.40;99.90
36990;DHT22;22898;52.102;5.776;2024-02-26T15:37:16;10.80;99.90
36990;DHT22;22898;52.102;5.776;2024-02-26T15:39:41;11.40;99.90
36990;DHT22;22898;52.102;5.776;2024-02-26T15:42:07;11.60;99.90